River Of Ponds, Canada
Current Conditions -  °F | °C
As of 12:31 AM on Friday 19 Dec 2014 (Local Time) from CWDH Reporting Station
Broken Clouds Broken Clouds  
Wind Chill:   Ceiling: 2400
Heat Index:   Visibility: 9mi
Dew Point:   Wind: 8mph
Humidity: 81%   Direction: 130°SE
Pressure: 29.53"   Gusts: NA
Location:  50.53°N, 57.38°W
Report Text: CWDH 190331Z AUTO 13007KT 9SM BKN024 BKN034 03/M00 A2953 RMK T00291001 WSI/SWOB
Loading
Personal Weather Stations






























Interactive Weather Map New forecast layout! Learn more

10-Day Weather Forecast

Advertisements
Track Severe Weather on mobile